createdAt,value
2022-10-24T00:00:34.085Z,1.60
2022-10-24T00:03:37.052Z,1.90
2022-10-24T00:06:41.422Z,1.87
2022-10-24T00:09:44.296Z,1.90
2022-10-24T00:12:48.686Z,2.03
2022-10-24T00:15:51.916Z,1.53
2022-10-24T00:18:55.115Z,1.40
2022-10-24T00:21:58.121Z,1.43
2022-10-24T00:25:01.211Z,1.80
2022-10-24T00:28:05.785Z,1.10
2022-10-24T00:31:10.179Z,1.43
2022-10-24T00:34:13.097Z,1.30
2022-10-24T00:37:16.066Z,1.37
2022-10-24T00:40:20.951Z,1.07
2022-10-24T00:43:27.328Z,0.90
2022-10-24T00:46:30.184Z,1.30
2022-10-24T00:49:41.067Z,1.23
2022-10-24T00:52:47.207Z,1.00
2022-10-24T00:55:53.472Z,1.27
2022-10-24T00:58:59.221Z,1.13
2022-10-24T01:02:02.762Z,1.43
2022-10-24T01:05:07.737Z,0.90
2022-10-24T01:08:24.156Z,1.40
2022-10-24T01:11:38.906Z,1.30
2022-10-24T01:14:51.562Z,1.10
2022-10-24T01:18:01.848Z,1.00
2022-10-24T01:21:25.048Z,1.40
2022-10-24T01:24:51.596Z,1.73
2022-10-24T01:28:02.030Z,1.77
2022-10-24T01:31:11.142Z,2.03
2022-10-24T01:34:18.876Z,1.50
2022-10-24T01:37:26.888Z,1.67
2022-10-24T01:40:36.386Z,0.93
2022-10-24T01:43:43.965Z,1.93
2022-10-24T01:46:52.412Z,1.93
2022-10-24T01:49:59.865Z,1.23
2022-10-24T01:53:04.136Z,1.43
2022-10-24T01:56:07.773Z,1.37
2022-10-24T01:59:47.883Z,1.20
2022-10-24T02:02:55.608Z,1.43
2022-10-24T02:06:04.374Z,1.60
2022-10-24T02:09:11.662Z,1.10
2022-10-24T02:12:18.005Z,1.53
2022-10-24T02:15:25.643Z,1.10
2022-10-24T02:18:30.512Z,0.97
2022-10-24T02:21:38.340Z,1.13
2022-10-24T02:24:47.003Z,0.90
2022-10-24T02:27:54.441Z,0.97
2022-10-24T02:31:01.857Z,1.10
2022-10-24T02:34:06.986Z,0.90
2022-10-24T02:37:12.736Z,1.30
2022-10-24T02:40:17.596Z,0.93
2022-10-24T02:43:23.481Z,0.80
2022-10-24T02:46:28.949Z,1.00
2022-10-24T02:49:32.179Z,1.00
2022-10-24T02:52:35.687Z,1.10
2022-10-24T02:55:38.581Z,0.93
2022-10-24T02:58:41.738Z,1.10
2022-10-24T03:01:46.265Z,1.50
2022-10-24T03:04:49.273Z,0.90
2022-10-24T03:07:52.153Z,1.30
2022-10-24T03:10:55.052Z,0.73
2022-10-24T03:13:57.904Z,1.00
2022-10-24T03:17:02.180Z,1.00
2022-10-24T03:20:05.843Z,0.87
2022-10-24T03:23:08.945Z,1.13
2022-10-24T03:26:11.829Z,1.13
2022-10-24T03:29:15.021Z,0.83
2022-10-24T03:32:19.593Z,1.40
2022-10-24T03:35:22.873Z,0.93
2022-10-24T03:38:25.944Z,0.90
2022-10-24T03:41:28.990Z,1.30
2022-10-24T03:44:32.151Z,1.03
2022-10-24T03:47:36.399Z,1.37
2022-10-24T03:50:39.374Z,0.80
2022-10-24T03:53:42.237Z,1.30
2022-10-24T03:56:45.589Z,1.27
2022-10-24T03:59:48.441Z,1.10
2022-10-24T04:02:52.697Z,0.70
2022-10-24T04:05:56.205Z,1.03
2022-10-24T04:08:59.783Z,1.37
2022-10-24T04:12:02.909Z,0.97
2022-10-24T04:15:06.844Z,1.10
2022-10-24T04:18:11.112Z,1.37
2022-10-24T04:21:16.859Z,1.60
2022-10-24T04:24:23.625Z,1.23
2022-10-24T04:27:26.643Z,1.93
2022-10-24T04:30:30.046Z,1.07
2022-10-24T04:33:36.269Z,1.97
2022-10-24T04:36:39.149Z,1.20
2022-10-24T04:39:42.292Z,1.47
2022-10-24T04:42:45.425Z,1.20
2022-10-24T04:45:48.773Z,1.50
2022-10-24T04:48:53.517Z,1.40
2022-10-24T04:51:56.400Z,1.30
2022-10-24T04:54:59.822Z,1.40
2022-10-24T04:58:03.110Z,1.80
2022-10-24T05:01:06.233Z,1.70
2022-10-24T05:04:10.510Z,1.77
2022-10-24T05:07:13.404Z,1.63
2022-10-24T05:10:17.775Z,1.53
2022-10-24T05:13:20.993Z,1.47
2022-10-24T05:16:23.876Z,1.43
2022-10-24T05:19:28.179Z,1.57
2022-10-24T05:22:31.070Z,2.20
2022-10-24T05:25:34.193Z,1.17
2022-10-24T05:28:37.079Z,1.53
2022-10-24T05:31:39.965Z,1.63
2022-10-24T05:34:44.211Z,1.63
2022-10-24T05:37:47.118Z,2.50
2022-10-24T05:40:51.608Z,1.57
2022-10-24T05:43:54.491Z,1.77
2022-10-24T05:46:57.376Z,1.27
2022-10-24T05:50:01.870Z,2.43
2022-10-24T05:53:04.959Z,1.80
2022-10-24T05:56:08.011Z,2.10
2022-10-24T05:59:11.056Z,1.50
2022-10-24T06:02:19.629Z,1.80
2022-10-24T06:05:23.984Z,1.93
2022-10-24T06:08:26.856Z,2.30
2022-10-24T06:11:29.844Z,1.67
2022-10-24T06:14:32.750Z,2.13
2022-10-24T06:17:37.029Z,2.33
2022-10-24T06:20:41.503Z,1.30
2022-10-24T06:23:44.429Z,2.17
2022-10-24T06:26:47.309Z,1.40
2022-10-24T06:29:50.316Z,1.67
2022-10-24T06:32:53.201Z,1.77
2022-10-24T06:36:01.021Z,1.40
2022-10-24T06:39:03.996Z,1.73
2022-10-24T06:42:06.993Z,1.33
2022-10-24T06:45:10.599Z,1.40
2022-10-24T06:48:14.314Z,1.80
2022-10-24T06:51:18.719Z,1.37
2022-10-24T06:54:23.289Z,1.20
2022-10-24T06:57:28.454Z,1.40
2022-10-24T07:00:33.583Z,1.43
2022-10-24T07:03:36.595Z,1.70
2022-10-24T07:06:41.364Z,1.57
2022-10-24T07:09:45.117Z,1.60
2022-10-24T07:12:48.337Z,1.10
2022-10-24T07:15:54.263Z,1.63
2022-10-24T07:18:57.941Z,1.23
2022-10-24T07:22:02.247Z,1.53
2022-10-24T07:25:06.753Z,1.10
2022-10-24T07:28:11.505Z,1.53
2022-10-24T07:31:17.437Z,1.37
2022-10-24T07:34:20.365Z,1.27
2022-10-24T07:40:28.500Z,1.60
2022-10-24T07:43:31.387Z,1.77
2022-10-24T07:46:34.369Z,1.00
2022-10-24T07:49:37.663Z,1.67
2022-10-24T07:52:41.908Z,1.60
2022-10-24T07:55:45.725Z,1.63
2022-10-24T07:58:49.042Z,1.50
2022-10-24T08:01:51.944Z,1.73
2022-10-24T08:04:54.940Z,1.33
2022-10-24T08:08:19.783Z,1.70
2022-10-24T08:11:24.291Z,1.87
2022-10-24T08:14:27.460Z,1.60
2022-10-24T08:17:30.548Z,1.40
2022-10-24T08:20:33.695Z,1.50
2022-10-24T08:23:40.732Z,1.47
2022-10-24T08:26:43.881Z,1.23
2022-10-24T08:29:46.902Z,1.47
2022-10-24T08:32:49.917Z,1.70
2022-10-24T08:35:54.329Z,2.00
2022-10-24T08:38:59.371Z,1.63
2022-10-24T08:42:05.285Z,1.43
2022-10-24T08:45:14.333Z,1.70
2022-10-24T08:48:24.257Z,2.47
2022-10-24T08:51:35.713Z,2.93
2022-10-24T08:54:43.485Z,1.97
2022-10-24T08:57:52.149Z,2.37
2022-10-24T09:00:58.182Z,2.13
2022-10-24T09:04:05.745Z,1.33
2022-10-24T09:07:16.335Z,1.53
2022-10-24T09:10:27.390Z,1.93
2022-10-24T09:13:32.389Z,2.07
2022-10-24T09:16:37.318Z,1.70
2022-10-24T09:19:40.599Z,1.53
2022-10-24T09:22:46.044Z,1.63
2022-10-24T09:25:52.916Z,1.87
2022-10-24T09:28:57.119Z,1.97
2022-10-24T09:32:00.707Z,2.00
2022-10-24T09:35:07.440Z,1.70
2022-10-24T09:38:28.398Z,1.30
2022-10-24T09:41:33.277Z,1.90
2022-10-24T09:44:38.892Z,1.33
2022-10-24T09:47:42.106Z,1.60
2022-10-24T09:50:46.783Z,1.80
2022-10-24T09:54:08.219Z,1.43
2022-10-24T09:57:17.512Z,2.20
2022-10-24T10:00:27.228Z,1.73
2022-10-24T10:03:30.691Z,1.90
2022-10-24T10:06:34.347Z,1.27
2022-10-24T10:09:41.894Z,1.50
2022-10-24T10:12:49.241Z,2.10
2022-10-24T10:15:55.226Z,1.40
2022-10-24T10:19:04.230Z,1.43
2022-10-24T10:22:22.090Z,1.63
2022-10-24T10:25:34.171Z,1.77
2022-10-24T10:28:44.469Z,2.73
2022-10-24T10:31:49.751Z,1.80
2022-10-24T10:34:59.961Z,1.63
2022-10-24T10:38:12.332Z,1.90
2022-10-24T10:41:36.338Z,1.53
2022-10-24T10:44:55.871Z,2.10
2022-10-24T10:48:06.989Z,1.77
2022-10-24T10:51:18.132Z,1.47
2022-10-24T10:54:37.475Z,1.67
2022-10-24T10:57:48.579Z,1.17
2022-10-24T11:01:00.848Z,1.37
2022-10-24T11:04:13.449Z,1.80
2022-10-24T11:07:22.425Z,1.50
2022-10-24T11:10:29.079Z,2.13
2022-10-24T11:13:38.224Z,2.40
2022-10-24T11:16:43.845Z,1.83
2022-10-24T11:20:01.435Z,1.77
2022-10-24T11:23:13.210Z,1.67
2022-10-24T11:26:23.544Z,2.17
2022-10-24T11:29:34.455Z,1.80
2022-10-24T11:32:43.481Z,1.50
2022-10-24T11:36:02.848Z,2.50
2022-10-24T11:39:13.775Z,3.20
2022-10-24T11:42:22.595Z,3.37
2022-10-24T11:45:29.147Z,1.70
2022-10-24T11:48:38.071Z,1.27
2022-10-24T11:51:47.189Z,1.30
2022-10-24T11:54:56.954Z,1.90
2022-10-24T11:58:01.513Z,2.17
2022-10-24T12:01:31.196Z,1.57
2022-10-24T12:04:53.298Z,2.17
2022-10-24T12:08:28.875Z,1.77
2022-10-24T12:11:50.762Z,1.33
2022-10-24T12:15:08.005Z,1.60
2022-10-24T12:18:14.309Z,1.43
2022-10-24T12:21:25.771Z,1.50
2022-10-24T12:24:31.465Z,1.27
2022-10-24T12:27:38.219Z,1.23
2022-10-24T12:30:41.272Z,1.90
2022-10-24T12:33:45.186Z,1.10
2022-10-24T12:37:37.878Z,1.03
2022-10-24T12:40:55.674Z,1.30
2022-10-24T12:44:31.871Z,1.63
2022-10-24T12:47:37.517Z,1.47
2022-10-24T12:51:18.918Z,1.57
2022-10-24T12:54:41.656Z,1.50
2022-10-24T12:57:47.699Z,1.40
2022-10-24T13:00:55.984Z,2.53
2022-10-24T13:04:41.491Z,1.90
2022-10-24T13:08:05.177Z,1.20
2022-10-24T13:11:26.534Z,1.47
2022-10-24T13:14:51.079Z,1.43
2022-10-24T13:18:06.585Z,2.07
2022-10-24T13:21:17.351Z,1.90
2022-10-24T13:24:30.184Z,1.10
2022-10-24T13:27:34.436Z,1.67
2022-10-24T13:30:37.333Z,1.93
2022-10-24T13:33:44.498Z,1.40
2022-10-24T13:36:50.660Z,1.40
2022-10-24T13:39:56.888Z,1.37
2022-10-24T13:43:07.467Z,1.33
2022-10-24T13:46:13.190Z,1.40
2022-10-24T13:49:21.698Z,1.07
2022-10-24T13:52:30.808Z,1.30
2022-10-24T13:55:38.786Z,1.20
2022-10-24T13:58:45.370Z,1.20
2022-10-24T14:01:48.769Z,1.60
2022-10-24T14:04:54.851Z,1.13
2022-10-24T14:08:01.664Z,1.30
2022-10-24T14:11:06.448Z,0.80
2022-10-24T14:14:25.266Z,1.47
2022-10-24T14:17:30.731Z,1.03
2022-10-24T14:20:36.235Z,1.23
2022-10-24T14:23:41.172Z,1.10
2022-10-24T14:26:45.537Z,1.60
2022-10-24T14:30:00.119Z,1.57
2022-10-24T14:33:09.039Z,1.33
2022-10-24T14:36:12.443Z,1.53
2022-10-24T14:39:23.680Z,1.53
2022-10-24T14:42:27.301Z,1.10
2022-10-24T14:45:32.473Z,1.10
2022-10-24T14:48:35.786Z,1.33
2022-10-24T14:51:41.610Z,1.20
2022-10-24T14:54:52.195Z,1.23
2022-10-24T14:57:56.951Z,1.13
2022-10-24T15:01:01.786Z,0.80
2022-10-24T15:04:06.963Z,1.50
2022-10-24T15:07:27.818Z,1.30
2022-10-24T15:10:38.365Z,1.13
2022-10-24T15:13:48.257Z,1.30
2022-10-24T15:17:15.566Z,0.90
2022-10-24T15:20:23.643Z,1.23
2022-10-24T15:23:29.603Z,1.03
2022-10-24T15:26:35.814Z,1.10
2022-10-24T15:29:40.768Z,1.13
2022-10-24T15:32:45.541Z,0.97
2022-10-24T15:35:48.429Z,1.33
2022-10-24T15:38:56.016Z,1.00
2022-10-24T15:41:58.951Z,0.70
2022-10-24T15:45:02.802Z,0.90
2022-10-24T15:48:07.342Z,0.70
2022-10-24T15:51:14.676Z,0.80
2022-10-24T15:54:19.169Z,0.63
2022-10-24T15:57:22.045Z,1.00
2022-10-24T16:00:26.018Z,1.27
2022-10-24T16:03:30.619Z,1.07
2022-10-24T16:06:34.613Z,1.20
2022-10-24T16:09:37.628Z,1.00
2022-10-24T16:12:40.573Z,1.10
2022-10-24T16:15:44.180Z,1.00
2022-10-24T16:18:48.437Z,0.70
2022-10-24T16:21:51.504Z,1.27
2022-10-24T16:24:54.355Z,0.77
2022-10-24T16:27:57.870Z,0.80
2022-10-24T16:31:00.839Z,0.60
2022-10-24T16:34:07.235Z,1.03
2022-10-24T16:37:10.749Z,0.70
2022-10-24T16:40:14.510Z,0.80
2022-10-24T16:43:19.739Z,0.50
2022-10-24T16:46:22.925Z,0.90
2022-10-24T16:49:27.368Z,1.00
2022-10-24T16:52:30.324Z,0.87
2022-10-24T16:55:33.984Z,0.80
2022-10-24T16:58:36.939Z,0.97
2022-10-24T17:01:40.198Z,1.17
2022-10-24T17:04:44.895Z,1.20
2022-10-24T17:07:48.196Z,0.80
2022-10-24T17:10:51.845Z,0.60
2022-10-24T17:13:54.802Z,0.80
2022-10-24T17:16:57.955Z,0.83
2022-10-24T17:20:02.762Z,0.57
2022-10-24T17:23:06.668Z,0.80
2022-10-24T17:26:16.188Z,0.80
2022-10-24T17:29:25.590Z,0.90
2022-10-24T17:32:28.666Z,0.80
2022-10-24T17:35:36.709Z,0.80
2022-10-24T17:38:44.029Z,1.00
2022-10-24T17:41:47.605Z,0.90
2022-10-24T17:44:50.940Z,0.87
2022-10-24T17:47:53.944Z,0.90
2022-10-24T17:50:59.592Z,1.00
2022-10-24T17:54:02.462Z,0.60
2022-10-24T17:57:07.561Z,1.23
2022-10-24T18:00:11.807Z,1.20
2022-10-24T18:03:15.067Z,1.20
2022-10-24T18:06:19.483Z,0.90
2022-10-24T18:09:22.349Z,0.97
2022-10-24T18:12:25.576Z,0.83
2022-10-24T18:15:28.524Z,0.70
2022-10-24T18:18:31.413Z,0.70
2022-10-24T18:21:35.957Z,0.60
2022-10-24T18:24:39.188Z,0.47
2022-10-24T18:27:42.624Z,0.53
2022-10-24T18:30:45.499Z,0.80
2022-10-24T18:33:48.875Z,0.80
2022-10-24T18:36:53.339Z,1.03
2022-10-24T18:39:57.040Z,0.53
2022-10-24T18:43:04.197Z,0.90
2022-10-24T18:46:12.176Z,1.17
2022-10-24T18:49:16.435Z,1.10
2022-10-24T18:52:37.211Z,0.80
2022-10-24T18:55:40.786Z,1.10
2022-10-24T18:58:43.941Z,0.90
2022-10-24T19:01:55.608Z,0.87
2022-10-24T19:05:08.924Z,0.80
2022-10-24T19:08:16.619Z,0.90
2022-10-24T19:11:19.796Z,0.80
2022-10-24T19:14:25.201Z,0.90
2022-10-24T19:17:28.117Z,0.97
2022-10-24T19:20:32.305Z,0.80
2022-10-24T19:23:37.055Z,1.00
2022-10-24T19:26:40.016Z,0.83
2022-10-24T19:29:42.876Z,0.87
2022-10-24T19:32:46.058Z,0.77
2022-10-24T19:35:49.191Z,0.80
2022-10-24T19:38:57.278Z,0.90
2022-10-24T19:42:00.229Z,1.37
2022-10-24T19:45:05.351Z,0.77
2022-10-24T19:48:09.285Z,0.90
2022-10-24T19:51:14.017Z,0.63
2022-10-24T19:54:18.267Z,0.80
2022-10-24T19:57:21.174Z,0.83
2022-10-24T20:00:25.921Z,1.00
2022-10-24T20:03:28.796Z,1.30
2022-10-24T20:06:32.138Z,1.10
2022-10-24T20:09:37.096Z,0.70
2022-10-24T20:12:39.996Z,1.07
2022-10-24T20:15:42.918Z,1.00
2022-10-24T20:18:46.433Z,0.97
2022-10-24T20:21:49.432Z,0.70
2022-10-24T20:24:53.959Z,0.80
2022-10-24T20:27:56.833Z,0.90
2022-10-24T20:30:59.740Z,1.40
2022-10-24T20:34:06.998Z,1.27
2022-10-24T20:37:11.429Z,0.73
2022-10-24T20:40:15.997Z,0.87
2022-10-24T20:43:18.958Z,1.27
2022-10-24T20:46:22.034Z,1.20
2022-10-24T20:49:24.961Z,1.00
2022-10-24T20:52:27.814Z,1.17
2022-10-24T20:55:43.945Z,1.30
2022-10-24T20:58:47.736Z,1.67
2022-10-24T21:01:50.733Z,2.60
2022-10-24T21:04:53.690Z,2.17
2022-10-24T21:07:56.924Z,2.57
2022-10-24T21:11:06.480Z,2.40
2022-10-24T21:14:12.776Z,2.00
2022-10-24T21:17:16.154Z,1.17
2022-10-24T21:20:19.276Z,0.90
2022-10-24T21:23:22.146Z,1.00
2022-10-24T21:26:26.584Z,1.10
2022-10-24T21:29:34.157Z,1.07
2022-10-24T21:32:37.545Z,1.10
2022-10-24T21:35:40.498Z,1.77
2022-10-24T21:38:46.575Z,1.77
2022-10-24T21:41:50.974Z,1.27
2022-10-24T21:44:53.920Z,1.33
2022-10-24T21:47:57.077Z,1.10
2022-10-24T21:51:04.757Z,1.00
2022-10-24T21:54:09.672Z,1.40
2022-10-24T21:57:14.178Z,1.33
2022-10-24T22:00:17.413Z,1.20
2022-10-24T22:03:20.511Z,1.07
2022-10-24T22:06:24.220Z,0.93
2022-10-24T22:09:27.087Z,0.53
2022-10-24T22:12:31.577Z,1.13
2022-10-24T22:15:34.654Z,0.40
2022-10-24T22:18:38.373Z,0.70
2022-10-24T22:21:43.139Z,0.40
2022-10-24T22:24:46.064Z,0.50
2022-10-24T22:27:50.292Z,0.70
2022-10-24T22:30:53.745Z,0.70
2022-10-24T22:33:57.960Z,0.80
2022-10-24T22:37:13.025Z,1.03
2022-10-24T22:40:24.827Z,0.70
2022-10-24T22:43:29.688Z,0.70
2022-10-24T22:46:50.625Z,0.77
2022-10-24T22:50:01.915Z,1.10
2022-10-24T22:53:06.151Z,0.50
2022-10-24T22:56:13.753Z,0.80
2022-10-24T22:59:18.835Z,0.80
2022-10-24T23:02:31.022Z,0.60
2022-10-24T23:05:44.477Z,0.50
2022-10-24T23:08:47.484Z,0.80
2022-10-24T23:11:50.825Z,0.80
2022-10-24T23:14:55.861Z,0.70
2022-10-24T23:17:59.282Z,0.87
2022-10-24T23:21:11.656Z,0.60
2022-10-24T23:24:16.927Z,1.17
2022-10-24T23:27:39.249Z,0.50
2022-10-24T23:30:44.019Z,0.73
2022-10-24T23:33:47.656Z,0.70
2022-10-24T23:36:51.347Z,0.70
2022-10-24T23:39:54.684Z,0.93
2022-10-24T23:42:58.432Z,1.00
2022-10-24T23:46:11.254Z,1.07
2022-10-24T23:49:24.178Z,0.97
2022-10-24T23:52:33.457Z,1.00
2022-10-24T23:55:37.091Z,1.30
2022-10-24T23:58:39.942Z,0.80
